Terminal Aerodrome Forecast
Issued by NWS

Home | Current Version | Previous Version | Text Only | Print | Product List | Glossary On
Versions: 1 2 3 4 5 6 7 8 9 10 11 12 13 14 15 16 17 18 19 20 21 22 23 24 25 26 27 28 29 30
000
FTUS46 KPDT 012300
TAFBDN
TAF
KBDN 012333Z 0200/0224 26010KT P6SM SCT040 BKN050
     FM020500 20004KT P6SM SCT025
     FM021000 20005KT 6SM BR FEW002 SCT015
     FM021500 21011KT 5SM -RA BR SCT015 OVC030
     FM022100 23013G20KT P6SM -SHRA SCT025 OVC035=

USA.gov is the U.S. government's official web portal to all federal, state and local government web resources and services.